Tropical Cyclones
[Index]
Main Index Home Page Stock Weather Photos Extreme Storms Discussion Storm News and Storm Chasing Reports Tropical Cyclones / Hurricanes / Typhoons Weather Data and Links Wild Fires / Bushfires Weather Observation Techniques Weather Picture Catalogue Tornado Pictures and Reports Stock Video Footage and DVDs for sale
Season 2016-2017 Tropical Cyclone DONNA Track Map
Season 2016-2017 Summaries (Operational Data): [AU] [SIO] [SPAC] [SH]
<<- Previous TC | 2016-2017 Season | Next TC ->>

click for intensity scale information  Lat/long Grid: Show Hide

 Date Labels: Show Hide

Operational Tropical Cyclone Data : JTWC Advisories

Name: DONNA
Number: 1718

27 Apr 2017 06:00 UTC to 12 May 2017 12:00 UTC

    date/time    lat    long     hPa   cat  kts
2017-04-27 06    9.8   165.6    1006                     
2017-04-27 18    8.9   164.0    1006                     
2017-04-28 06   11.0   161.0    1007                     
2017-04-28 18   11.0   162.8    1006                     
2017-04-29 06   10.5   160.4    1008         15          
2017-04-29 12   10.8   161.2    1010         15          
2017-04-29 18   11.0   162.0    1010         15          
2017-04-30 00   11.2   162.9    1010         15          
2017-04-30 06   11.3   163.7    1010         15          
2017-04-30 12   11.6   164.4    1010         15          
2017-04-30 18   11.8   165.4    1010         15          
2017-05-01 00   11.9   167.6    1010         15          
2017-05-01 06   12.1   169.2    1004         20          
2017-05-01 12   12.6   169.6    1004         25          
2017-05-01 18   12.7   170.2    1000         30          
2017-05-02 00   12.8   170.7    1001         30          
2017-05-02 06   12.9   170.7    1000         30          
2017-05-02 12   13.0   171.2    1000         30          
2017-05-02 18   13.0   171.4     996    1    40          
2017-05-03 00   12.8   171.7     995    2    50          
2017-05-03 06   12.7   171.2     991    2    55          
2017-05-03 12   12.8   170.5     992    2    55          
2017-05-03 18   12.8   169.6     984    3    65          
2017-05-04 00   12.5   168.6     978    3    75          
2017-05-04 06   12.5   168.1     977    3    80          
2017-05-04 12   12.6   167.6     973    3    85          
2017-05-04 18   12.9   166.8     968    3    85          
2017-05-05 00   13.0   166.2     973    3    85          
2017-05-05 06   13.4   165.6     969    4    90          
2017-05-05 12   13.7   164.9     956    4    90          
2017-05-05 15   13.5   164.6     956    4    90          
2017-05-05 18   13.3   164.5     968    4    90          
2017-05-06 00   13.2   164.3     971    3    85          
2017-05-06 06   13.3   164.2     959    3    85          
2017-05-06 12   13.2   164.1     963    4    90          
2017-05-06 18   13.4   164.1     964    4    90          
2017-05-07 00   13.9   164.2     968    3    85          
2017-05-07 06   14.6   164.6     956    4    90          
2017-05-07 12   15.5   164.8     948    4   100          
2017-05-07 18   16.5   164.8     944    5   115          
2017-05-08 00   16.9   164.8     946    5   115          
2017-05-08 06   17.5   165.1     945    5   115          
2017-05-08 12   18.0   165.7     945    4   105          
2017-05-08 18   18.7   166.1     948    4   100          
2017-05-09 00   19.5   166.6     964    4    95          
2017-05-09 06   19.9   166.7     969    4    90          
2017-05-09 12   20.5   166.5     976    3    80          
2017-05-09 18   21.1   166.8     978    2    60          
2017-05-10 00   21.4   167.9    1001    1    40          
2017-05-10 06   22.9   168.0    1000    1    35          
2017-05-10 12   23.9   168.1     996    1    35          
2017-05-10 18   26.2   167.1     996    1    35          
2017-05-11 00   28.6   164.5    1001                     
2017-05-11 06   30.8   169.5     999                     
2017-05-11 12   33.3   171.5     994                     
2017-05-11 18   34.9   174.0     994                     
2017-05-12 00   35.9   176.3     996                     
2017-05-12 06   35.3   177.7     993                     
2017-05-12 12   35.9   179.4W    999                     
Winds are 10-min average.

Tropical cyclone tracks developed by Michael Bath using operational warnings and advisories and Google Maps.


[Australian Severe Weather index] [Copyright Notice] [Email Contacts] [Search This Site] [Privacy Policy]
Document: tropical_cyclone_donna.htm Updated: 4 July 2017